»·PEaware :: DAL1650 KSLC-KBOI

DAL1650 :: KSLC-KBOI

FLIGHT INFORMATION

Flight Status: Arrived
Operator:
Delta Air Lines
More flights by this operator :: More flights under this callsign
Pilot: Dave P. (45)
Aircraft: BOEING 737-600
(B736)
More flights by this aircraft type
Origin: KSLC Salt Lake City Intl
United States
Destination: KBOI Boise Air Terminal/Gowen
United States
More flights between these airports :: More routes between these airports
Route: CGULL1 TWF BROPH SPUUD3
File this flight plan on PilotEdge
Remarks: PBN / A1B1C1D1S1S2 DOF / 181028 REG / N736PM OPR / DAL PER / C RMK / TCAS SIMBRIEF
Altitude:
(Current/Filed)
34,000ft
Speed:
(Current/Filed)
461kts
Departed: 28-Oct-18 07:27 AM
Arrived: 28-Oct-18 08:16 AM
Distance/Time
Traveled:
252nm/0:49
Distance/Time
To Go:
Arrived

Flight Plot

Page will automatically refresh every two minutes.

Flight plan parsing failed; only flown route is shown


Map Options




Map Legend


Flown Route
Filed Route
Departure Airport
Arrival Airport
Navaid (VOR, NDB)
Fix

Horizontal Profiles

Position Reports

Time Latitude Longitude Heading Altitude Ground
Speed
28-Oct-18 06:56 40.787495 -111.982129 102 4235ft 0kts
28-Oct-18 06:57 40.787495 -111.982129 102 4235ft 0kts
28-Oct-18 06:58 40.787495 -111.982129 102 4235ft 0kts
28-Oct-18 06:59 40.787495 -111.982129 102 4235ft 0kts
28-Oct-18 07:00 40.787495 -111.982129 102 4235ft 0kts
28-Oct-18 07:01 40.787495 -111.982129 102 4235ft 0kts
28-Oct-18 07:02 40.787495 -111.982129 102 4235ft 0kts
28-Oct-18 07:03 40.787495 -111.982129 102 4235ft 0kts
28-Oct-18 07:04 40.787495 -111.982129 102 4235ft 0kts
28-Oct-18 07:05 40.787495 -111.982129 102 4235ft 0kts
28-Oct-18 07:06 40.787495 -111.982129 102 4235ft 0kts
28-Oct-18 07:07 40.787495 -111.982129 102 4235ft 0kts
28-Oct-18 07:08 40.787495 -111.982129 102 4235ft 0kts
28-Oct-18 07:09 40.787495 -111.982129 102 4235ft 0kts
28-Oct-18 07:10 40.787495 -111.982129 102 4235ft 0kts
28-Oct-18 07:11 40.787495 -111.982129 102 4235ft 0kts
28-Oct-18 07:12 40.787495 -111.982129 102 4235ft 0kts
28-Oct-18 07:13 40.787495 -111.982129 102 4235ft 0kts
28-Oct-18 07:14 40.787495 -111.982129 102 4235ft 0kts
28-Oct-18 07:15 40.787495 -111.982129 102 4235ft 0kts
28-Oct-18 07:16 40.787495 -111.982130 102 4234ft 0kts
28-Oct-18 07:17 40.787621 -111.982863 102 4234ft 0kts
28-Oct-18 07:18 40.787621 -111.982863 102 4234ft 0kts
28-Oct-18 07:19 40.787635 -111.982791 62 4234ft 2kts
28-Oct-18 07:20 40.791003 -111.982973 356 4234ft 8kts
28-Oct-18 07:21 40.791152 -111.982986 355 4234ft 0kts
28-Oct-18 07:22 40.791262 -111.982997 355 4234ft 5kts
28-Oct-18 07:23 40.791356 -111.989080 265 4234ft 19kts
28-Oct-18 07:24 40.792148 -111.994335 354 4234ft 21kts
28-Oct-18 07:25 40.799346 -111.995166 354 4234ft 25kts
28-Oct-18 07:26 40.806232 -111.995966 355 4234ft 25kts
28-Oct-18 07:27 40.807819 -111.997978 246 4234ft 0kts
28-Oct-18 07:28 40.807626 -111.999255 226 4234ft 5kts
28-Oct-18 07:29 40.800454 -111.998444 174 4235ft 103kts
28-Oct-18 07:30 40.761527 -112.002185 228 5689ft 163kts
28-Oct-18 07:31 40.786197 -112.062390 312 7102ft 242kts
28-Oct-18 07:32 40.840067 -112.136580 311 9692ft 295kts
28-Oct-18 07:33 40.899421 -112.218716 310 12522ft 340kts
28-Oct-18 07:34 40.966537 -112.312035 310 15982ft 355kts
28-Oct-18 07:35 41.035893 -112.408385 309 19356ft 367kts
28-Oct-18 07:36 41.107702 -112.508108 308 22352ft 380kts
28-Oct-18 07:37 41.181789 -112.611632 308 24957ft 392kts
28-Oct-18 07:38 41.257853 -112.718403 307 27251ft 404kts
28-Oct-18 07:39 41.335976 -112.828504 307 29223ft 414kts
28-Oct-18 07:40 41.415467 -112.940951 306 31218ft 416kts
28-Oct-18 07:41 41.494183 -113.052747 305 33361ft 409kts
28-Oct-18 07:42 41.572275 -113.164081 305 34211ft 411kts
28-Oct-18 07:43 41.649539 -113.274649 305 34210ft 406kts
28-Oct-18 07:44 41.726629 -113.385380 305 34196ft 407kts
28-Oct-18 07:45 41.803657 -113.496438 304 34187ft 406kts
28-Oct-18 07:46 41.880523 -113.607683 304 34180ft 405kts
28-Oct-18 07:47 41.956803 -113.718498 304 34172ft 405kts
28-Oct-18 07:48 42.033316 -113.830071 304 34158ft 405kts
28-Oct-18 07:49 42.109799 -113.942020 304 34150ft 405kts
28-Oct-18 07:50 42.185961 -114.053924 304 34146ft 405kts
28-Oct-18 07:51 42.262043 -114.166107 304 34145ft 405kts
28-Oct-18 07:52 42.337977 -114.278015 304 34142ft 404kts
28-Oct-18 07:53 42.413722 -114.390767 304 34141ft 405kts
28-Oct-18 07:54 42.489251 -114.503881 302 34140ft 403kts
28-Oct-18 07:55 42.561933 -114.619596 302 34142ft 402kts
28-Oct-18 07:56 42.634058 -114.735318 301 34144ft 402kts
28-Oct-18 07:57 42.706410 -114.851863 301 34144ft 402kts
28-Oct-18 07:58 42.782518 -114.963858 305 32836ft 401kts
28-Oct-18 07:59 42.859746 -115.074492 305 29550ft 402kts
28-Oct-18 08:00 42.935411 -115.183654 305 26859ft 390kts
28-Oct-18 08:01 43.009039 -115.290364 305 24211ft 382kts
28-Oct-18 08:02 43.081204 -115.395868 305 21583ft 376kts
28-Oct-18 08:03 43.152205 -115.499884 306 18993ft 369kts
28-Oct-18 08:04 43.218917 -115.597591 305 18073ft 330kts
28-Oct-18 08:05 43.277991 -115.690911 295 16298ft 320kts
28-Oct-18 08:06 43.319008 -115.798574 291 14360ft 318kts
28-Oct-18 08:07 43.359403 -115.907086 292 12368ft 315kts
28-Oct-18 08:08 43.397657 -116.009867 292 10429ft 292kts
28-Oct-18 08:09 43.432007 -116.102990 293 9033ft 268kts
28-Oct-18 08:10 43.465915 -116.195413 293 7458ft 264kts
28-Oct-18 08:11 43.494549 -116.279328 292 6971ft 221kts
28-Oct-18 08:12 43.519628 -116.352481 293 5895ft 212kts
28-Oct-18 08:13 43.546954 -116.422963 326 4387ft 207kts
28-Oct-18 08:14 43.595984 -116.408434 23 4428ft 181kts
28-Oct-18 08:15 43.607507 -116.353830 109 4006ft 170kts
28-Oct-18 08:16 43.588679 -116.297361 115 3739ft 155kts
28-Oct-18 08:17 43.572508 -116.249947 115 3018ft 132kts
28-Oct-18 08:18 43.564176 -116.223791 6 2879ft 8kts
28-Oct-18 08:19 43.566321 -116.221741 115 2879ft 12kts
28-Oct-18 08:20 43.566890 -116.219673 22 2879ft 0kts
28-Oct-18 08:21 43.566890 -116.219673 22 2879ft 0kts
28-Oct-18 08:22 43.566890 -116.219673 22 2879ft 0kts
28-Oct-18 08:23 43.566890 -116.219673 22 2879ft 0kts
28-Oct-18 08:24 43.566890 -116.219673 22 2879ft 0kts
28-Oct-18 08:25 43.566890 -116.219673 22 2879ft 0kts
28-Oct-18 08:26 43.566890 -116.219673 22 2879ft 0kts
28-Oct-18 08:27 43.566890 -116.219673 22 2879ft 0kts

Navigation Log

Ident Type
Flight plan parsing failed, navigation log unavailable